Time;durP1;ratioP1;P1;durP2;ratioP2;P2;SDS_P1;SDS_P2;PMS_P1;PMS_P2;Temp;Humidity;BMP_temperature;BMP_pressure;BME280_temperature;BME280_humidity;BME280_pressure;Samples;Min_cycle;Max_cycle;Signal;HPM_P1;HPM_P2
2022/02/09 00:00:53;;;;;;;4.47;1.50;;;10.80;99.90;;;;;;5073243;28;20231;-62
2022/02/09 00:03:23;;;;;;;2.80;1.63;;;10.80;99.90;;;;;;5073202;28;20201;-61
2022/02/09 00:05:58;;;;;;;4.50;1.30;;;10.80;99.90;;;;;;5072939;28;20746;-61
2022/02/09 00:08:25;;;;;;;1.87;1.40;;;10.80;99.90;;;;;;5073083;28;20335;-63
2022/02/09 00:10:58;;;;;;;2.37;1.20;;;10.80;99.90;;;;;;5072930;28;20695;-62
2022/02/09 00:13:45;;;;;;;2.87;1.20;;;10.80;99.90;;;;;;5073026;28;20224;-62
2022/02/09 00:16:28;;;;;;;3.87;1.50;;;10.80;99.90;;;;;;5073379;28;20255;-62
2022/02/09 00:19:00;;;;;;;2.57;1.20;;;10.70;99.90;;;;;;5072983;28;20299;-62
2022/02/09 00:21:47;;;;;;;3.37;1.23;;;10.80;99.90;;;;;;5072896;28;20201;-62
2022/02/09 00:24:41;;;;;;;1.63;1.00;;;10.80;99.90;;;;;;5072860;28;20201;-62
2022/02/09 00:30:33;;;;;;;2.70;1.00;;;10.90;99.90;;;;;;5030362;28;20201;-62
2022/02/09 00:33:29;;;;;;;1.50;1.13;;;10.90;99.90;;;;;;5030301;28;20266;-62
2022/02/09 00:36:20;;;;;;;2.53;1.20;;;10.90;99.90;;;;;;5064564;28;20583;-62
2022/02/09 01:12:24;;;;;;;1.87;0.87;;;10.80;99.90;;;;;;5072608;28;20676;-63
2022/02/09 01:39:42;;;;;;;2.23;1.10;;;10.90;99.90;;;;;;5071658;28;20223;-63
2022/02/09 01:55:54;;;;;;;1.63;1.13;;;10.90;99.90;;;;;;5071703;28;20671;-62
2022/02/09 01:58:23;;;;;;;3.37;1.40;;;10.90;99.90;;;;;;5071252;28;20244;-62
2022/02/09 02:00:50;;;;;;;3.00;1.33;;;10.90;99.90;;;;;;5071973;28;20208;-62
2022/02/09 02:03:16;;;;;;;2.90;1.50;;;10.90;99.90;;;;;;5075425;28;20201;-62
2022/02/09 02:05:45;;;;;;;1.87;1.20;;;10.90;99.90;;;;;;5075462;28;20204;-63
2022/02/09 02:08:13;;;;;;;2.00;1.20;;;10.90;99.90;;;;;;5075272;28;20224;-62
2022/02/09 02:10:50;;;;;;;2.47;1.50;;;11.00;99.90;;;;;;5075404;28;20236;-62
2022/02/09 02:13:37;;;;;;;5.07;1.60;;;11.00;99.90;;;;;;5075684;28;20327;-63
2022/02/09 02:16:23;;;;;;;2.60;1.63;;;11.00;99.90;;;;;;5075416;28;20204;-62
2022/02/09 02:18:53;;;;;;;2.27;1.10;;;11.10;99.90;;;;;;5074969;28;20711;-62
2022/02/09 02:21:34;;;;;;;1.87;1.20;;;11.00;99.90;;;;;;5075134;28;20253;-62
2022/02/09 02:26:57;;;;;;;1.97;1.43;;;10.90;99.90;;;;;;5065742;28;20553;-63
2022/02/09 02:43:59;;;;;;;1.97;1.40;;;10.90;99.90;;;;;;5051789;28;20204;-62
2022/02/09 02:46:46;;;;;;;3.37;1.60;;;11.00;99.90;;;;;;5074441;28;20575;-62
2022/02/09 02:58:03;;;;;;;2.80;1.57;;;11.00;99.90;;;;;;5100465;23;20277;-60
2022/02/09 03:08:52;;;;;;;2.20;1.20;;;11.00;99.90;;;;;;5056543;28;20702;-63
2022/02/09 03:11:46;;;;;;;2.57;1.40;;;11.00;99.90;;;;;;5074312;28;20208;-63
2022/02/09 03:14:14;;;;;;;3.77;1.77;;;10.90;99.90;;;;;;5074537;28;20311;-63
2022/02/09 03:16:45;;;;;;;2.67;1.67;;;11.00;99.90;;;;;;5074503;28;20258;-63
2022/02/09 03:19:42;;;;;;;2.63;1.50;;;11.00;99.90;;;;;;5074586;28;20221;-60
2022/02/09 03:22:19;;;;;;;2.40;1.30;;;10.90;99.90;;;;;;5074394;28;20583;-63
2022/02/09 03:25:16;;;;;;;3.20;1.40;;;10.90;99.90;;;;;;5074566;28;20209;-63
2022/02/09 03:44:30;;;;;;;2.57;1.57;;;10.70;99.90;;;;;;5073882;28;20192;-62
2022/02/09 03:47:27;;;;;;;2.03;1.33;;;10.70;99.90;;;;;;5073680;28;20254;-63
2022/02/09 03:53:02;;;;;;;3.00;1.60;;;10.70;99.90;;;;;;5061258;28;20429;-62
2022/02/09 03:55:40;;;;;;;2.33;1.37;;;10.70;99.90;;;;;;5073754;28;20241;-62
2022/02/09 03:58:08;;;;;;;1.80;1.40;;;10.70;99.90;;;;;;5073306;28;20657;-62
2022/02/09 04:00:39;;;;;;;2.87;1.60;;;10.70;99.90;;;;;;5073440;28;20250;-62
2022/02/09 04:03:12;;;;;;;4.77;2.00;;;10.70;99.90;;;;;;5073374;28;20205;-62
2022/02/09 04:05:39;;;;;;;4.97;2.00;;;10.70;99.90;;;;;;5073065;28;20213;-66
2022/02/09 04:08:09;;;;;;;4.90;1.83;;;10.60;99.90;;;;;;5072854;28;20236;-61
2022/02/09 04:10:40;;;;;;;3.67;1.90;;;10.50;99.90;;;;;;5073041;28;20266;-61
2022/02/09 04:13:15;;;;;;;3.13;1.80;;;10.50;99.90;;;;;;5073071;28;20715;-61
2022/02/09 04:15:53;;;;;;;4.03;2.30;;;10.50;99.90;;;;;;5072938;28;20702;-62
2022/02/09 04:18:35;;;;;;;11.13;5.23;;;10.50;99.90;;;;;;5072995;28;20297;-62
2022/02/09 04:37:55;;;;;;;6.07;3.30;;;10.60;99.90;;;;;;5072690;28;20741;-63
2022/02/09 04:40:53;;;;;;;4.40;2.83;;;10.60;99.90;;;;;;5072378;28;20296;-62
2022/02/09 04:43:32;;;;;;;4.93;2.57;;;10.60;99.90;;;;;;5072329;28;20200;-62
2022/02/09 04:46:21;;;;;;;5.57;2.63;;;10.60;99.90;;;;;;5072481;28;20558;-61
2022/02/09 04:49:20;;;;;;;5.23;2.30;;;10.60;99.90;;;;;;5072205;28;20221;-61
2022/02/09 04:52:00;;;;;;;5.57;2.47;;;10.50;99.90;;;;;;5072724;28;20211;-61
2022/02/09 04:54:33;;;;;;;3.33;2.20;;;10.50;99.90;;;;;;5072322;28;20230;-61
2022/02/09 04:57:03;;;;;;;6.00;2.57;;;10.50;99.90;;;;;;5072169;28;20303;-61
2022/02/09 04:59:39;;;;;;;4.47;2.60;;;10.50;99.90;;;;;;5072163;28;20216;-61
2022/02/09 05:02:33;;;;;;;3.90;2.50;;;10.50;99.90;;;;;;5072714;28;20208;-61
2022/02/09 05:21:58;;;;;;;3.87;2.60;;;10.60;99.90;;;;;;5059190;28;20208;-62
2022/02/09 05:24:39;;;;;;;4.90;2.70;;;10.60;99.90;;;;;;5072439;28;20223;-61
2022/02/09 05:27:16;;;;;;;4.83;2.40;;;10.70;99.90;;;;;;5072959;28;20200;-61
2022/02/09 05:29:43;;;;;;;8.00;2.50;;;10.70;99.90;;;;;;5072520;28;20680;-62
2022/02/09 05:32:10;;;;;;;4.00;2.20;;;10.70;99.90;;;;;;5073436;28;20657;-61
2022/02/09 05:34:37;;;;;;;5.50;2.73;;;10.80;99.90;;;;;;5073302;28;20294;-61
2022/02/09 05:37:06;;;;;;;11.03;5.33;;;10.80;99.90;;;;;;5075514;28;20681;-62
2022/02/09 05:39:32;;;;;;;8.50;4.30;;;10.80;99.90;;;;;;5077025;28;20207;-62
2022/02/09 05:41:59;;;;;;;6.13;4.10;;;10.70;99.90;;;;;;5076915;28;20231;-61
2022/02/09 05:44:26;;;;;;;6.60;3.47;;;10.70;99.90;;;;;;5076150;28;20196;-62
2022/02/09 05:47:31;;;;;;;7.33;3.17;;;10.70;99.90;;;;;;5075720;28;20204;-62
2022/02/09 05:49:53;;;;;;;4.80;2.83;;;10.70;99.90;;;;;;5075431;28;20678;-62
2022/02/09 05:52:29;;;;;;;6.67;3.27;;;10.70;99.90;;;;;;5076275;28;20219;-62
2022/02/09 05:55:21;;;;;;;5.23;3.40;;;10.80;99.90;;;;;;5076524;28;20534;-62
2022/02/09 05:57:51;;;;;;;4.47;2.80;;;10.70;99.90;;;;;;5077064;28;20607;-62
2022/02/09 06:00:17;;;;;;;9.90;4.83;;;10.80;99.90;;;;;;5075882;28;20219;-62
2022/02/09 06:02:45;;;;;;;6.47;3.53;;;10.80;99.90;;;;;;5075984;28;20266;-63
2022/02/09 06:05:13;;;;;;;6.10;2.43;;;10.70;99.90;;;;;;5075581;28;20205;-62
2022/02/09 06:07:41;;;;;;;3.77;2.57;;;10.70;99.90;;;;;;5075401;28;20319;-62
2022/02/09 06:10:15;;;;;;;8.27;3.03;;;10.70;99.90;;;;;;5075347;28;20670;-62
2022/02/09 06:12:48;;;;;;;5.57;3.10;;;10.60;99.90;;;;;;5075251;28;20228;-62
2022/02/09 06:15:34;;;;;;;6.50;3.27;;;10.60;99.90;;;;;;5075483;28;20274;-62
2022/02/09 06:20:48;;;;;;;6.47;3.17;;;10.70;99.90;;;;;;5074932;28;20585;-61
2022/02/09 06:23:16;;;;;;;8.00;3.00;;;10.80;99.90;;;;;;5075288;28;20205;-62
2022/02/09 06:25:43;;;;;;;4.33;2.30;;;10.80;99.90;;;;;;5075194;28;20611;-61
2022/02/09 06:28:10;;;;;;;4.63;2.10;;;10.70;99.90;;;;;;5075242;28;20228;-62
2022/02/09 06:30:37;;;;;;;5.40;2.33;;;10.80;99.90;;;;;;5074841;28;20209;-62
2022/02/09 06:33:04;;;;;;;6.30;3.53;;;10.80;99.90;;;;;;5075166;28;20224;-61
2022/02/09 06:35:31;;;;;;;4.83;2.20;;;10.80;99.90;;;;;;5075137;28;20205;-62
2022/02/09 06:37:59;;;;;;;4.50;2.17;;;10.90;99.90;;;;;;5075167;28;20225;-62
2022/02/09 06:40:29;;;;;;;6.00;2.80;;;10.90;99.90;;;;;;5074711;28;20673;-62
2022/02/09 06:42:55;;;;;;;3.23;2.00;;;10.90;99.90;;;;;;5075213;28;20640;-62
2022/02/09 06:45:25;;;;;;;9.10;4.00;;;10.90;99.90;;;;;;5075098;28;20205;-62
2022/02/09 06:47:52;;;;;;;5.20;2.90;;;10.80;99.90;;;;;;5074402;28;20224;-62
2022/02/09 06:50:24;;;;;;;5.13;2.60;;;10.90;99.90;;;;;;5074476;28;20684;-61
2022/02/09 06:53:02;;;;;;;6.47;3.17;;;10.90;99.90;;;;;;5074895;28;20204;-61
2022/02/09 06:55:32;;;;;;;4.57;2.97;;;10.90;99.90;;;;;;5074995;28;20220;-61
2022/02/09 06:58:03;;;;;;;6.10;3.10;;;10.90;99.90;;;;;;5074973;28;20228;-61
2022/02/09 07:00:31;;;;;;;6.93;3.20;;;10.90;99.90;;;;;;5074854;28;20266;-61
2022/02/09 07:02:58;;;;;;;5.70;3.33;;;10.90;99.90;;;;;;5075807;28;20212;-61
2022/02/09 07:05:25;;;;;;;6.70;3.57;;;10.90;99.90;;;;;;5076685;28;20207;-62
2022/02/09 07:07:51;;;;;;;22.07;12.17;;;11.00;99.90;;;;;;5075426;28;20229;-62
2022/02/09 07:10:18;;;;;;;12.93;8.10;;;11.00;99.90;;;;;;5074958;28;20205;-62
2022/02/09 07:12:46;;;;;;;5.40;3.50;;;11.00;99.90;;;;;;5074979;28;20635;-63
2022/02/09 07:15:16;;;;;;;5.30;2.60;;;11.00;99.90;;;;;;5074591;28;20233;-62
2022/02/09 07:17:44;;;;;;;5.93;2.53;;;10.90;99.90;;;;;;5075011;28;20233;-62
2022/02/09 07:20:17;;;;;;;3.77;2.10;;;10.90;99.90;;;;;;5074566;28;20661;-62
2022/02/09 07:22:44;;;;;;;4.63;2.47;;;11.00;99.90;;;;;;5074745;28;20228;-62
2022/02/09 07:25:14;;;;;;;8.97;2.40;;;11.10;99.90;;;;;;5074909;28;20231;-62
2022/02/09 07:27:49;;;;;;;5.77;2.40;;;11.20;99.90;;;;;;5075761;28;20235;-62
2022/02/09 07:30:20;;;;;;;6.33;2.40;;;11.20;99.90;;;;;;5075957;28;20550;-60
2022/02/09 07:32:47;;;;;;;4.03;2.20;;;11.10;99.90;;;;;;5074243;28;20684;-60
2022/02/09 07:35:14;;;;;;;5.10;2.27;;;11.00;99.90;;;;;;5074630;28;20683;-59
2022/02/09 07:37:41;;;;;;;5.87;2.80;;;11.10;99.90;;;;;;5074691;28;20315;-60
2022/02/09 07:40:11;;;;;;;6.57;2.80;;;11.10;99.90;;;;;;5074059;28;20213;-61
2022/02/09 07:42:43;;;;;;;11.03;3.40;;;11.10;99.90;;;;;;5074734;28;20221;-60
2022/02/09 07:45:30;;;;;;;6.07;3.20;;;11.00;99.90;;;;;;5074561;28;20208;-59
2022/02/09 07:48:13;;;;;;;6.07;2.63;;;11.10;99.90;;;;;;5074347;28;20231;-60
2022/02/09 07:50:43;;;;;;;9.90;2.57;;;11.50;99.90;;;;;;5074662;28;20409;-60
2022/02/09 07:53:13;;;;;;;6.70;2.80;;;11.60;99.90;;;;;;5074474;28;20673;-60
2022/02/09 07:55:40;;;;;;;6.90;2.57;;;11.70;99.90;;;;;;5074052;28;20209;-60
2022/02/09 07:58:07;;;;;;;9.07;3.30;;;11.90;99.90;;;;;;5073962;28;20237;-60
2022/02/09 08:00:34;;;;;;;6.77;2.50;;;11.90;99.90;;;;;;5073420;28;20208;-60
2022/02/09 08:03:04;;;;;;;6.57;2.57;;;11.80;99.90;;;;;;5073993;28;20197;-60
2022/02/09 08:05:31;;;;;;;6.03;2.80;;;11.70;99.90;;;;;;5074289;28;20633;-60
2022/02/09 08:07:58;;;;;;;6.23;3.20;;;11.70;99.90;;;;;;5074182;28;20358;-60
2022/02/09 08:10:28;;;;;;;7.97;2.70;;;11.60;99.90;;;;;;5074072;28;20248;-60
2022/02/09 08:27:05;;;;;;;6.57;2.90;;;10.60;99.90;;;;;;5064877;28;20683;-60
2022/02/09 08:29:44;;;;;;;5.70;2.70;;;10.50;99.90;;;;;;5074087;28;20219;-61
2022/02/09 08:32:37;;;;;;;5.87;2.67;;;10.50;99.90;;;;;;5073299;28;20247;-60
2022/02/09 08:35:06;;;;;;;10.00;3.60;;;10.40;99.90;;;;;;5073394;28;20232;-60
2022/02/09 08:37:33;;;;;;;19.80;13.30;;;10.20;99.90;;;;;;5073005;28;20700;-60
2022/02/09 08:40:00;;;;;;;5.10;2.53;;;10.10;99.90;;;;;;5072928;28;20208;-60
2022/02/09 08:42:26;;;;;;;6.07;2.83;;;9.90;99.90;;;;;;5073226;28;20212;-60
2022/02/09 08:44:53;;;;;;;5.83;2.60;;;9.80;99.90;;;;;;5072826;28;20196;-60
2022/02/09 08:47:21;;;;;;;4.23;2.40;;;9.80;99.90;;;;;;5072975;28;20228;-60
2022/02/09 08:49:48;;;;;;;6.63;2.73;;;9.90;99.90;;;;;;5072822;28;20230;-60
2022/02/09 08:52:17;;;;;;;4.83;2.50;;;10.00;99.90;;;;;;5072743;28;20209;-60
2022/02/09 08:54:43;;;;;;;8.37;2.47;;;10.00;99.90;;;;;;5072547;28;20225;-60
2022/02/09 08:57:11;;;;;;;7.40;3.00;;;9.90;99.90;;;;;;5072108;28;20215;-60
2022/02/09 08:59:39;;;;;;;5.63;2.50;;;10.10;99.90;;;;;;5094634;23;20323;-60
2022/02/09 09:02:10;;;;;;;8.23;2.60;;;10.40;99.90;;;;;;5072148;28;20201;-61
2022/02/09 09:04:42;;;;;;;6.07;2.50;;;10.50;99.90;;;;;;5072322;28;20246;-61
2022/02/09 09:07:14;;;;;;;5.83;2.27;;;10.40;99.90;;;;;;5072620;28;20208;-60
2022/02/09 09:09:55;;;;;;;4.07;2.03;;;10.30;99.90;;;;;;5071683;28;20224;-60
2022/02/09 10:05:12;;;;;;;4.53;1.60;;;12.20;99.90;;;;;;5071027;28;20200;-60
2022/02/09 10:33:04;;;;;;;2.30;1.30;;;12.40;99.90;;;;;;5074795;28;20234;-58
2022/02/09 10:35:35;;;;;;;2.77;1.50;;;12.40;99.90;;;;;;5075082;28;20260;-58
2022/02/09 10:38:20;;;;;;;4.00;1.70;;;12.40;99.90;;;;;;5074776;28;20656;-58
2022/02/09 10:40:51;;;;;;;3.93;1.50;;;12.50;99.90;;;;;;5074690;28;20230;-58
2022/02/09 10:43:29;;;;;;;5.20;1.73;;;12.60;99.90;;;;;;5074874;28;20292;-58
2022/02/09 10:46:10;;;;;;;2.73;1.43;;;12.50;99.90;;;;;;5074651;28;20204;-58
2022/02/09 10:48:47;;;;;;;5.47;1.67;;;12.50;99.90;;;;;;5074732;28;20228;-58
2022/02/09 10:51:21;;;;;;;4.73;1.43;;;12.70;99.90;;;;;;5074376;28;20204;-59
2022/02/09 10:54:06;;;;;;;3.73;2.17;;;12.80;99.90;;;;;;5073737;28;20287;-58
2022/02/09 10:56:34;;;;;;;6.43;1.70;;;13.00;99.90;;;;;;5074069;28;20628;-58
2022/02/09 10:59:03;;;;;;;3.53;1.60;;;12.90;99.90;;;;;;5073724;28;20233;-58
2022/02/09 11:01:30;;;;;;;4.37;1.50;;;13.00;99.90;;;;;;5074347;28;20209;-58
2022/02/09 11:04:00;;;;;;;4.60;1.40;;;13.20;99.90;;;;;;5074224;28;20249;-58
2022/02/09 11:06:28;;;;;;;6.07;1.83;;;13.40;99.90;;;;;;5074038;28;20209;-58
2022/02/09 11:08:55;;;;;;;5.03;1.73;;;13.60;99.90;;;;;;5074213;28;20224;-58
2022/02/09 11:11:22;;;;;;;4.93;1.50;;;13.70;99.90;;;;;;5074069;28;20235;-58
2022/02/09 11:13:49;;;;;;;3.27;1.70;;;13.70;99.90;;;;;;5073970;28;20208;-58
2022/02/09 11:16:17;;;;;;;4.50;1.77;;;13.80;99.90;;;;;;5073992;28;20274;-58
2022/02/09 11:18:47;;;;;;;4.67;1.80;;;13.80;99.90;;;;;;5073705;28;20320;-59
2022/02/09 11:21:15;;;;;;;3.37;1.50;;;13.90;99.90;;;;;;5073855;28;20261;-58
2022/02/09 11:23:45;;;;;;;4.90;2.03;;;14.00;99.90;;;;;;5074081;28;20230;-58
2022/02/09 11:26:29;;;;;;;3.90;1.80;;;14.20;99.90;;;;;;5073960;28;20197;-59
2022/02/09 11:29:19;;;;;;;5.50;1.60;;;14.30;99.90;;;;;;5074009;28;20251;-59
2022/02/09 11:32:23;;;;;;;4.20;1.63;;;14.40;99.90;;;;;;5073911;28;20205;-59
2022/02/09 11:35:27;;;;;;;4.83;1.90;;;14.40;99.90;;;;;;5072438;28;20257;-59
2022/02/09 11:38:13;;;;;;;2.90;1.80;;;14.40;99.90;;;;;;5073778;28;20316;-58
2022/02/09 11:40:47;;;;;;;2.80;1.40;;;14.20;99.90;;;;;;5073381;28;20303;-59
2022/02/09 11:43:38;;;;;;;4.07;1.93;;;14.40;99.90;;;;;;5073433;28;20205;-59
2022/02/09 11:46:23;;;;;;;3.47;1.57;;;14.50;99.90;;;;;;5073378;28;20205;-59
2022/02/09 11:49:31;;;;;;;3.47;1.67;;;14.70;99.90;;;;;;5073346;28;20236;-59
2022/02/09 11:52:16;;;;;;;3.67;1.30;;;14.70;99.90;;;;;;5073245;28;20211;-58
2022/02/09 12:00:58;;;;;;;2.93;1.60;;;15.00;99.90;;;;;;5071573;28;20197;-58
2022/02/09 12:09:26;;;;;;;4.67;1.67;;;15.00;99.90;;;;;;5072242;28;20243;-59
2022/02/09 12:12:02;;;;;;;3.03;1.70;;;14.90;99.90;;;;;;5072630;28;20208;-59
2022/02/09 12:14:50;;;;;;;5.20;1.40;;;15.10;99.90;;;;;;5072640;28;20224;-59
2022/02/09 12:17:29;;;;;;;5.67;1.60;;;15.20;99.90;;;;;;5072731;28;20579;-58
2022/02/09 12:20:06;;;;;;;6.20;1.37;;;15.30;99.90;;;;;;5073247;28;20208;-58
2022/02/09 12:22:46;;;;;;;16.23;13.13;;;15.10;99.90;;;;;;5073101;28;20262;-60
2022/02/09 12:25:12;;;;;;;3.33;2.00;;;14.90;99.90;;;;;;5072584;28;20247;-59
2022/02/09 12:27:48;;;;;;;6.10;1.63;;;14.90;99.90;;;;;;5072409;28;20364;-59
2022/02/09 12:30:14;;;;;;;3.23;1.63;;;15.10;99.90;;;;;;5072395;28;20205;-59
2022/02/09 12:32:42;;;;;;;6.23;1.50;;;15.30;99.90;;;;;;5072938;28;20204;-59
2022/02/09 12:35:11;;;;;;;3.83;1.60;;;15.10;99.90;;;;;;5072952;28;20225;-59
2022/02/09 12:37:39;;;;;;;3.57;1.60;;;15.00;99.90;;;;;;5072430;28;20217;-59
2022/02/09 12:40:09;;;;;;;3.37;1.70;;;15.10;99.90;;;;;;5071918;28;20396;-60
2022/02/09 12:42:37;;;;;;;3.57;1.60;;;15.20;99.90;;;;;;5072723;28;20216;-59
2022/02/09 12:45:08;;;;;;;6.90;2.30;;;15.30;99.90;;;;;;5072063;28;20212;-59
2022/02/09 12:47:38;;;;;;;4.27;2.10;;;15.50;99.90;;;;;;5073168;28;20208;-58
2022/02/09 12:50:08;;;;;;;7.20;1.73;;;15.70;99.90;;;;;;5072071;28;20560;-59
2022/02/09 12:52:36;;;;;;;3.33;1.70;;;15.70;99.90;;;;;;5072030;28;20254;-58
2022/02/09 12:55:05;;;;;;;3.00;1.77;;;15.70;99.90;;;;;;5071958;28;20264;-59
2022/02/09 12:57:38;;;;;;;4.67;1.90;;;15.60;99.90;;;;;;5071537;28;20205;-60
2022/02/09 13:00:08;;;;;;;3.87;1.67;;;15.70;99.90;;;;;;5071926;28;20205;-60
2022/02/09 13:02:42;;;;;;;2.60;1.60;;;15.60;99.90;;;;;;5072143;28;20212;-59
2022/02/09 13:05:09;;;;;;;7.10;1.90;;;15.20;99.90;;;;;;5071990;28;20271;-59
2022/02/09 13:07:35;;;;;;;4.27;1.90;;;15.00;99.90;;;;;;5072034;28;20254;-59
2022/02/09 13:10:03;;;;;;;2.43;1.40;;;14.90;99.90;;;;;;5071848;28;20267;-59
2022/02/09 13:12:31;;;;;;;2.53;1.47;;;15.00;99.90;;;;;;5071956;28;20212;-59
2022/02/09 13:15:11;;;;;;;3.90;2.03;;;15.10;99.90;;;;;;5071794;28;20274;-59
2022/02/09 13:17:58;;;;;;;3.83;1.50;;;15.20;99.90;;;;;;5071540;28;20216;-59
2022/02/09 13:21:03;;;;;;;3.40;1.60;;;15.40;99.90;;;;;;5071588;28;20205;-59
2022/02/09 13:23:44;;;;;;;3.40;1.47;;;15.50;99.90;;;;;;5071686;28;20668;-59
2022/02/09 13:26:37;;;;;;;4.93;1.90;;;15.60;99.90;;;;;;5071820;28;20196;-59
2022/02/09 14:11:32;;;;;;;4.07;1.63;;;15.50;99.90;;;;;;5075241;28;20216;-59
2022/02/09 14:14:05;;;;;;;5.03;1.80;;;15.40;99.90;;;;;;5075226;28;20209;-59
2022/02/09 14:16:57;;;;;;;2.97;1.53;;;15.20;99.90;;;;;;5075384;28;20297;-59
2022/02/09 14:23:44;;;;;;;5.27;1.80;;;15.10;99.90;;;;;;5074987;28;20235;-59
2022/02/09 14:47:26;;;;;;;5.20;1.70;;;15.00;99.90;;;;;;5072168;28;20294;-58
2022/02/09 14:52:42;;;;;;;3.03;1.37;;;15.10;99.90;;;;;;5030315;28;20204;-62
2022/02/09 14:55:24;;;;;;;3.77;1.63;;;14.90;99.90;;;;;;5074348;28;20224;-61
2022/02/09 14:58:03;;;;;;;5.30;1.70;;;15.10;99.90;;;;;;5098798;22;20315;-56
2022/02/09 15:00:31;;;;;;;5.50;1.87;;;15.10;99.90;;;;;;5049834;28;20297;-58
2022/02/09 15:03:05;;;;;;;2.60;1.30;;;15.00;99.90;;;;;;5050174;28;20202;-59
2022/02/09 15:08:34;;;;;;;2.43;1.33;;;14.80;99.90;;;;;;5054253;28;20308;-58
2022/02/09 15:11:12;;;;;;;4.10;1.50;;;14.90;99.90;;;;;;5054224;28;20211;-57
2022/02/09 15:13:53;;;;;;;4.60;1.77;;;14.90;99.90;;;;;;5054625;28;20209;-60
2022/02/09 15:16:25;;;;;;;3.43;1.73;;;14.70;99.90;;;;;;5054135;28;20499;-58
2022/02/09 15:24:21;;;;;;;3.27;1.50;;;14.80;99.90;;;;;;5023724;28;20209;-59
2022/02/09 15:26:50;;;;;;;5.93;1.90;;;14.70;99.90;;;;;;5034235;28;20573;-59
2022/02/09 15:29:18;;;;;;;4.23;1.40;;;14.50;99.90;;;;;;5034534;28;20229;-56
2022/02/09 15:31:50;;;;;;;4.37;1.90;;;14.70;99.90;;;;;;5034403;28;20298;-56
2022/02/09 15:34:23;;;;;;;5.07;1.80;;;14.60;99.90;;;;;;5034484;28;20629;-56
2022/02/09 15:37:00;;;;;;;4.27;2.00;;;14.50;99.90;;;;;;5034438;28;20740;-56
2022/02/09 15:39:29;;;;;;;3.63;1.77;;;14.50;99.90;;;;;;5034010;28;20226;-57
2022/02/09 15:42:05;;;;;;;4.53;1.70;;;14.40;99.90;;;;;;5034264;28;20206;-57
2022/02/09 15:58:36;;;;;;;2.00;1.30;;;13.90;99.90;;;;;;5033829;28;20336;-56
2022/02/09 16:07:07;;;;;;;3.40;1.77;;;13.70;99.90;;;;;;5033672;28;20292;-56
2022/02/09 16:09:31;;;;;;;4.93;1.90;;;13.70;99.90;;;;;;5033486;28;20232;-56
2022/02/09 16:21:03;;;;;;;3.13;1.47;;;13.50;99.90;;;;;;4999127;28;20308;-56
2022/02/09 16:23:14;;;;;;;2.97;2.03;;;13.40;99.90;;;;;;5033056;28;20212;-55
2022/02/09 16:26:14;;;;;;;3.73;1.87;;;13.30;99.90;;;;;;5033221;28;20212;-57
2022/02/09 16:34:55;;;;;;;7.37;2.50;;;13.10;99.90;;;;;;4986316;28;20191;-56
2022/02/09 16:45:28;;;;;;;6.40;2.50;;;12.70;99.90;;;;;;5033844;28;20198;-56
2022/02/09 16:48:00;;;;;;;4.83;2.60;;;12.60;99.90;;;;;;5033179;28;20684;-56
2022/02/09 16:50:36;;;;;;;7.17;3.60;;;12.40;99.90;;;;;;5033415;28;20206;-57
2022/02/09 16:53:10;;;;;;;9.10;4.33;;;12.30;99.90;;;;;;5033276;28;20209;-56
2022/02/09 17:20:24;;;;;;;7.33;2.40;;;10.90;99.90;;;;;;5032924;28;20255;-57
2022/02/09 17:22:52;;;;;;;5.10;2.30;;;10.80;99.90;;;;;;5032614;28;20212;-57
2022/02/09 17:25:19;;;;;;;5.60;2.73;;;10.70;99.90;;;;;;5032397;28;20206;-58
2022/02/09 17:27:47;;;;;;;5.57;2.80;;;10.60;99.90;;;;;;5032179;28;20207;-58
2022/02/09 17:30:46;;;;;;;5.37;3.10;;;10.50;99.90;;;;;;5032332;28;20213;-58
2022/02/09 17:33:17;;;;;;;4.97;2.70;;;10.50;99.90;;;;;;5032426;28;20733;-57
2022/02/09 17:35:49;;;;;;;6.73;2.43;;;10.40;99.90;;;;;;5032214;28;20237;-58
2022/02/09 17:38:29;;;;;;;6.80;2.73;;;10.30;99.90;;;;;;5032241;28;20721;-58
2022/02/09 17:57:44;;;;;;;5.97;3.90;;;9.50;99.90;;;;;;5031824;28;20803;-58
2022/02/09 18:00:15;;;;;;;6.80;3.70;;;9.50;99.90;;;;;;5031354;28;20756;-57
2022/02/09 18:02:44;;;;;;;10.43;7.20;;;9.50;99.90;;;;;;5032020;28;20249;-57
2022/02/09 18:05:17;;;;;;;12.33;7.00;;;9.40;99.90;;;;;;5031693;28;20215;-58
2022/02/09 18:07:47;;;;;;;11.13;4.73;;;9.40;99.90;;;;;;5031885;28;20666;-58
2022/02/09 18:10:24;;;;;;;8.93;5.03;;;9.30;99.90;;;;;;5032001;28;20293;-58
2022/02/09 18:13:14;;;;;;;8.60;5.50;;;9.20;99.90;;;;;;5031758;28;20666;-58
2022/02/09 18:16:03;;;;;;;15.23;5.83;;;9.00;99.90;;;;;;5031752;28;20214;-58
2022/02/09 18:27:32;;;;;;;10.23;5.10;;;8.70;99.90;;;;;;5031734;28;20617;-57
2022/02/09 18:29:53;;;;;;;10.70;5.27;;;8.60;99.90;;;;;;5030855;28;20236;-58
2022/02/09 18:43:22;;;;;;;13.30;6.60;;;7.90;99.90;;;;;;5032465;28;20245;-57
2022/02/09 18:45:54;;;;;;;10.93;5.73;;;7.70;99.90;;;;;;5035028;28;20834;-57
2022/02/09 18:57:00;;;;;;;12.03;6.87;;;7.50;99.90;;;;;;5034656;28;20248;-58
2022/02/09 19:02:31;;;;;;;10.97;6.40;;;7.50;99.90;;;;;;5034972;28;20672;-58
2022/02/09 19:05:11;;;;;;;11.97;6.80;;;7.50;99.90;;;;;;5034784;28;20268;-58
2022/02/09 19:07:55;;;;;;;9.93;6.23;;;7.50;99.90;;;;;;5034716;28;20616;-57
2022/02/09 19:16:08;;;;;;;20.50;11.80;;;7.50;99.90;;;;;;5034103;28;20244;-57
2022/02/09 19:18:46;;;;;;;16.97;10.50;;;7.40;99.90;;;;;;5034759;28;20909;-57
2022/02/09 19:26:56;;;;;;;11.73;8.07;;;7.40;99.90;;;;;;5034384;28;20218;-57
2022/02/09 19:32:44;;;;;;;11.57;6.73;;;7.30;99.90;;;;;;4972936;28;20219;-57
2022/02/09 19:41:05;;;;;;;8.43;6.17;;;7.20;99.90;;;;;;5034082;28;20209;-57
2022/02/09 19:46:30;;;;;;;11.67;5.97;;;7.10;99.90;;;;;;5033698;28;20332;-57
2022/02/09 19:49:05;;;;;;;12.67;6.53;;;7.10;99.90;;;;;;5033892;28;20288;-57
2022/02/09 19:51:40;;;;;;;10.57;7.27;;;7.00;99.90;;;;;;5033619;28;20590;-57
2022/02/09 19:54:12;;;;;;;10.43;6.63;;;7.00;99.90;;;;;;5033629;28;20205;-57
2022/02/09 19:56:45;;;;;;;10.43;7.70;;;6.90;99.90;;;;;;5033363;28;20678;-57
2022/02/09 19:59:16;;;;;;;10.70;7.33;;;6.80;99.90;;;;;;5033755;28;20238;-58
2022/02/09 20:01:44;;;;;;;11.43;6.90;;;6.70;99.90;;;;;;5033119;28;20210;-57
2022/02/09 20:04:13;;;;;;;11.67;7.10;;;6.60;99.90;;;;;;5033585;28;20210;-58
2022/02/09 20:06:40;;;;;;;9.50;6.50;;;6.50;99.90;;;;;;5033675;28;20205;-57
2022/02/09 20:09:08;;;;;;;8.90;5.53;;;6.50;99.90;;;;;;5033580;28;20233;-57
2022/02/09 20:11:37;;;;;;;23.80;14.37;;;6.50;99.90;;;;;;5033506;28;20202;-57
2022/02/09 20:14:04;;;;;;;10.63;7.77;;;6.50;99.90;;;;;;5033646;28;20214;-58
2022/02/09 20:16:31;;;;;;;8.80;5.83;;;6.40;99.90;;;;;;5033239;28;20234;-57
2022/02/09 20:18:59;;;;;;;10.30;6.53;;;6.30;99.90;;;;;;5033513;28;20230;-57
2022/02/09 20:21:28;;;;;;;12.20;6.07;;;6.10;99.90;;;;;;5033372;28;20296;-58
2022/02/09 20:23:55;;;;;;;10.43;6.10;;;6.10;99.90;;;;;;5033575;28;20210;-58
2022/02/09 20:26:24;;;;;;;8.20;5.30;;;6.10;99.90;;;;;;5033235;28;20301;-57
2022/02/09 20:28:53;;;;;;;9.17;5.40;;;6.10;99.90;;;;;;5033042;28;20579;-58
2022/02/09 20:31:26;;;;;;;9.83;6.07;;;6.10;99.90;;;;;;5033054;28;20249;-58
2022/02/09 20:33:57;;;;;;;9.37;6.17;;;6.10;99.90;;;;;;5033455;28;20210;-57
2022/02/09 20:36:24;;;;;;;9.30;5.20;;;6.00;99.90;;;;;;5033135;28;20237;-57
2022/02/09 20:38:56;;;;;;;7.47;5.57;;;6.00;99.90;;;;;;5033056;28;20234;-58
2022/02/09 20:41:22;;;;;;;11.57;5.57;;;6.00;99.90;;;;;;5033091;28;20198;-57
2022/02/09 20:44:00;;;;;;;8.67;5.43;;;6.10;99.90;;;;;;5033495;28;20487;-57
2022/02/09 20:46:29;;;;;;;46.20;28.93;;;6.10;99.90;;;;;;5033302;28;20213;-57
2022/02/09 20:48:56;;;;;;;23.73;17.00;;;6.20;99.90;;;;;;5033066;28;20222;-57
2022/02/09 20:51:23;;;;;;;9.70;5.77;;;6.20;99.90;;;;;;5032839;28;20222;-57
2022/02/09 20:53:50;;;;;;;8.97;5.20;;;6.20;99.90;;;;;;5033170;28;20202;-57
2022/02/09 20:56:19;;;;;;;7.47;5.13;;;6.10;99.90;;;;;;5032904;28;20233;-58
2022/02/09 20:58:49;;;;;;;10.57;5.40;;;6.10;99.90;;;;;;5066197;23;20233;-58
2022/02/09 21:01:20;;;;;;;6.67;4.80;;;6.10;99.90;;;;;;5063986;28;20205;-59
2022/02/09 21:03:51;;;;;;;9.73;5.40;;;6.10;99.90;;;;;;5072432;28;20319;-58
2022/02/09 21:06:31;;;;;;;8.37;5.33;;;6.00;99.90;;;;;;5071853;28;20208;-58
2022/02/09 21:09:05;;;;;;;10.73;5.93;;;6.00;99.90;;;;;;5072502;28;20228;-58
2022/02/09 21:11:46;;;;;;;9.90;6.20;;;6.00;99.90;;;;;;5071980;28;20215;-58
2022/02/09 21:14:21;;;;;;;11.77;6.60;;;5.90;99.90;;;;;;5072333;28;20215;-58
2022/02/09 21:17:04;;;;;;;15.67;6.73;;;5.80;99.90;;;;;;5072123;28;20229;-58
2022/02/09 21:25:19;;;;;;;9.03;6.53;;;5.60;99.90;;;;;;5072244;28;20207;-59
2022/02/09 21:41:39;;;;;;;12.30;7.10;;;5.60;99.90;;;;;;5071875;28;20683;-59
2022/02/09 21:43:05;;;;;;;10.27;6.70;;;5.30;99.90;;;;;;5071325;28;20219;-60
2022/02/09 21:45:32;;;;;;;12.53;6.33;;;5.20;99.90;;;;;;5071775;28;20228;-59
2022/02/09 21:56:18;;;;;;;10.63;6.53;;;5.00;99.90;;;;;;5071786;28;20246;-56